Time;durP1;ratioP1;P1;durP2;ratioP2;P2;SDS_P1;SDS_P2;PMS_P1;PMS_P2;Temp;Humidity;BMP_temperature;BMP_pressure;BME280_temperature;BME280_humidity;BME280_pressure;Samples;Min_cycle;Max_cycle;Signal;HPM_P1;HPM_P2
2023/01/31 00:01:39;;;;;;;42.67;16.70;;;;;;;-1.20;77.27;100477.72;6206086;23;19975;-87
2023/01/31 00:07:08;;;;;;;34.28;15.38;;;;;;;-1.20;76.90;100471.59;6295717;22;20051;-93
2023/01/31 00:10:20;;;;;;;41.28;16.20;;;;;;;-1.24;76.89;100473.59;6292791;22;20018;-90
2023/01/31 00:16:04;;;;;;;41.50;14.48;;;;;;;-1.40;76.88;100454.31;6325649;22;20025;-87
2023/01/31 00:19:19;;;;;;;31.88;13.50;;;;;;;-1.39;76.51;100443.66;6329332;22;20043;-86
2023/01/31 00:22:44;;;;;;;32.15;13.05;;;;;;;-1.34;76.57;100444.25;6330038;22;20078;-88
2023/01/31 00:25:17;;;;;;;31.77;13.07;;;;;;;-1.35;76.11;100428.53;6302344;22;20007;-86
2023/01/31 00:34:14;;;;;;;37.10;13.07;;;;;;;-1.31;75.81;100430.88;6325741;22;20033;-88
2023/01/31 00:37:35;;;;;;;32.83;12.43;;;;;;;-1.20;75.87;100438.16;6269748;22;20087;-87
2023/01/31 00:40:54;;;;;;;30.38;12.00;;;;;;;-1.20;76.16;100453.97;6338813;22;20084;-93
2023/01/31 00:44:21;;;;;;;29.80;11.57;;;;;;;-1.20;76.78;100453.13;6360478;22;20037;-88
2023/01/31 00:48:04;;;;;;;30.88;11.35;;;;;;;-1.14;76.52;100451.00;6347519;22;19999;-93
2023/01/31 00:53:24;;;;;;;27.45;11.00;;;;;;;-1.11;76.50;100442.88;6330426;22;20021;-84
2023/01/31 00:56:00;;;;;;;24.73;11.05;;;;;;;-1.16;76.22;100412.44;6269267;22;21282;-88
2023/01/31 00:58:54;;;;;;;;;;;;;;;-0.93;75.83;100440.09;6310010;22;20007;-91
2023/01/31 01:05:21;;;;;;;26.10;10.13;;;;;;;-1.14;75.70;100406.13;6335121;22;20041;-88
2023/01/31 01:11:39;;;;;;;27.58;11.63;;;;;;;-1.10;75.44;100397.09;6328097;22;20015;-88
2023/01/31 01:17:24;;;;;;;30.70;13.40;;;;;;;-1.06;74.96;100390.69;6350054;22;20010;-85
2023/01/31 01:20:43;;;;;;;30.27;12.32;;;;;;;-1.18;75.28;100380.88;6321164;22;20011;-86
2023/01/31 01:23:51;;;;;;;33.45;14.82;;;;;;;-0.99;75.34;100414.91;6348574;22;20023;-86
2023/01/31 01:27:26;;;;;;;30.92;14.18;;;;;;;-1.20;75.20;100364.28;6299265;22;20018;-91
2023/01/31 01:36:14;;;;;;;33.85;13.93;;;;;;;-1.31;76.16;100372.03;6343542;22;20011;-88
2023/01/31 01:39:33;;;;;;;29.98;13.35;;;;;;;-1.04;76.03;100400.31;6360533;22;20018;-90
2023/01/31 01:42:27;;;;;;;30.52;12.77;;;;;;;-1.00;75.93;100393.91;6314382;22;20012;-94
2023/01/31 01:45:33;;;;;;;27.63;12.73;;;;;;;-1.06;75.90;100393.31;6308687;22;20083;-88
2023/01/31 01:48:12;;;;;;;28.27;12.82;;;;;;;-1.17;75.82;100364.13;6315041;22;20030;-86
2023/01/31 01:51:08;;;;;;;31.08;13.40;;;;;;;-1.23;75.47;100348.66;6331797;22;20010;-85
2023/01/31 01:54:13;;;;;;;28.77;12.63;;;;;;;-1.22;75.64;100342.41;6268360;22;20073;-91
2023/01/31 01:57:32;;;;;;;30.67;12.85;;;;;;;-1.17;75.78;100348.28;6296677;22;20008;-90
2023/01/31 02:12:31;;;;;;;31.90;14.32;;;;;;;-0.98;75.88;100384.13;6248227;22;20021;-88
2023/01/31 02:16:04;;;;;;;27.42;13.13;;;;;;;-1.02;76.02;100387.88;6294697;22;20628;-85
2023/01/31 02:19:16;;;;;;;32.92;14.57;;;;;;;-1.07;75.61;100369.69;6295590;22;20011;-89
2023/01/31 02:23:18;;;;;;;29.30;13.70;;;;;;;-1.11;75.93;100362.88;6296618;22;20012;-92
2023/01/31 02:32:17;;;;;;;40.88;18.08;;;;;;;-0.94;75.77;100388.25;6247596;22;20023;31
2023/01/31 02:35:27;;;;;;;41.17;19.05;;;;;;;-0.97;76.00;100385.78;6302045;22;20030;-87
2023/01/31 02:38:46;;;;;;;43.47;19.95;;;;;;;-1.04;76.25;100387.97;6326293;22;20031;-86
2023/01/31 02:42:01;;;;;;;35.88;16.63;;;;;;;-1.00;76.24;100380.72;6274754;22;20019;-87
2023/01/31 02:45:07;;;;;;;41.75;18.25;;;;;;;-1.30;77.08;100357.88;6320229;22;20011;-85
2023/01/31 02:48:27;;;;;;;42.30;17.88;;;;;;;-1.29;77.51;100365.72;6333299;22;20038;-90
2023/01/31 02:51:25;;;;;;;40.40;17.90;;;;;;;-1.13;77.38;100380.59;6265166;22;20014;-88
2023/01/31 03:00:02;;;;;;;38.50;17.27;;;;;;;-1.25;78.05;100390.09;6080055;22;4533051;31
2023/01/31 03:03:09;;;;;;;39.22;17.30;;;;;;;-1.32;78.68;100384.34;6298767;22;20011;-88
2023/01/31 03:06:23;;;;;;;38.38;18.13;;;;;;;-1.42;78.49;100361.25;6288062;22;20011;-89
2023/01/31 03:09:07;;;;;;;;;;;;;;;-1.37;79.23;100380.28;6242041;23;20031;-84
2023/01/31 03:12:02;;;;;;;41.87;18.00;;;;;;;-1.34;78.85;100372.19;6267287;23;19922;-86
2023/01/31 03:14:52;;;;;;;44.38;19.48;;;;;;;-1.39;79.14;100368.97;6230865;23;20107;-87
2023/01/31 03:17:39;;;;;;;41.25;19.25;;;;;;;-1.48;79.12;100359.81;6265610;23;20036;-90
2023/01/31 03:20:42;;;;;;;43.70;20.77;;;;;;;-1.47;79.87;100377.34;6239001;23;20187;-90
2023/01/31 03:23:28;;;;;;;44.97;19.92;;;;;;;-1.42;79.54;100374.44;6266771;23;20004;-86
2023/01/31 03:25:57;;;;;;;45.33;20.77;;;;;;;-1.52;79.55;100340.72;6217235;23;20000;-88
2023/01/31 03:28:35;;;;;;;44.83;20.27;;;;;;;-1.35;79.38;100378.41;6212431;23;20012;-93
2023/01/31 03:31:55;;;;;;;40.10;18.98;;;;;;;-1.21;78.84;100372.31;6239828;23;20004;-86
2023/01/31 03:34:42;;;;;;;43.35;20.20;;;;;;;-1.10;78.25;100354.00;6218822;23;19999;-91
2023/01/31 03:38:37;;;;;;;43.95;19.63;;;;;;;-1.53;78.58;100319.69;6318907;22;20412;-84
2023/01/31 03:43:51;;;;;;;43.88;19.25;;;;;;;-1.15;77.96;100346.41;6360754;22;20054;-87
2023/01/31 03:46:50;;;;;;;39.97;18.45;;;;;;;-1.30;77.93;100324.44;6333892;22;20007;-91
2023/01/31 03:49:37;;;;;;;42.20;19.40;;;;;;;-0.92;77.69;100360.81;6299848;22;20011;-88
2023/01/31 03:52:59;;;;;;;44.92;19.35;;;;;;;-0.89;77.44;100357.13;6302755;22;20029;-88
2023/01/31 03:55:58;;;;;;;40.53;17.20;;;;;;;-0.79;77.50;100374.09;6298409;22;19999;-87
2023/01/31 03:59:21;;;;;;;38.40;17.95;;;;;;;-0.64;76.65;100373.13;6323755;22;20008;-89
2023/01/31 04:02:31;;;;;;;36.30;16.92;;;;;;;-0.94;77.08;100346.00;6298206;22;20042;-93
2023/01/31 04:05:47;;;;;;;42.05;17.67;;;;;;;-1.05;77.70;100328.22;6271957;22;20065;-90
2023/01/31 04:08:36;;;;;;;37.70;17.00;;;;;;;-0.71;76.84;100363.91;6296899;22;20426;-90
2023/01/31 04:11:27;;;;;;;38.08;17.98;;;;;;;-0.72;76.58;100361.38;6298741;22;20003;-92
2023/01/31 04:14:30;;;;;;;40.85;17.23;;;;;;;-0.78;76.66;100365.22;6324050;22;20007;-87
2023/01/31 04:17:15;;;;;;;38.42;17.38;;;;;;;-0.64;76.29;100362.56;6309117;22;20027;-84
2023/01/31 04:23:04;;;;;;;42.15;17.77;;;;;;;-0.46;75.33;100386.13;6295197;22;20020;-85
2023/01/31 04:25:55;;;;;;;39.47;17.05;;;;;;;-0.59;75.32;100370.19;6297612;22;20030;-86
2023/01/31 04:28:44;;;;;;;37.60;17.70;;;;;;;-0.60;75.53;100380.88;6281798;22;20018;-88
2023/01/31 04:31:40;;;;;;;41.65;19.75;;;;;;;-0.55;75.58;100389.34;6269740;22;20457;-90
2023/01/31 04:34:11;;;;;;;45.05;18.15;;;;;;;-0.63;75.58;100374.00;6293095;22;20023;-85
2023/01/31 04:37:00;;;;;;;41.63;17.73;;;;;;;-0.64;75.61;100386.34;6244625;22;20038;-85
2023/01/31 04:40:00;;;;;;;41.35;18.00;;;;;;;-0.69;75.89;100387.56;6281622;22;20075;-86
2023/01/31 04:42:29;;;;;;;39.83;17.83;;;;;;;-0.83;75.94;100388.44;6345584;22;20081;-83
2023/01/31 04:45:03;;;;;;;37.45;16.35;;;;;;;-0.83;76.62;100403.44;6314503;22;20023;-87
2023/01/31 04:47:56;;;;;;;38.30;17.27;;;;;;;-0.86;77.17;100409.75;6329539;22;20023;-87
2023/01/31 04:58:43;;;;;;;43.25;19.85;;;;;;;-0.99;78.59;100377.13;6318216;22;20034;-88
2023/01/31 05:01:30;;;;;;;48.95;20.50;;;;;;;-0.80;78.93;100419.91;6302525;22;20030;-88
2023/01/31 05:04:30;;;;;;;48.05;21.30;;;;;;;-0.92;79.05;100389.84;6331177;22;20009;-87
2023/01/31 05:07:58;;;;;;;46.63;19.70;;;;;;;-0.68;78.81;100421.81;6357300;22;20011;-88
2023/01/31 05:10:54;;;;;;;41.65;20.33;;;;;;;-1.02;79.85;100398.44;6353014;22;20007;-87
2023/01/31 05:13:42;;;;;;;;;;;;;;;-0.91;80.17;100425.03;6323352;22;20082;-85
2023/01/31 05:16:13;;;;;;;48.47;22.25;;;;;;;-1.05;80.67;100415.28;6330041;22;19902;-86
2023/01/31 05:18:39;;;;;;;55.90;25.70;;;;;;;-1.19;80.58;100397.66;6274167;22;20132;-86
2023/01/31 05:21:06;;;;;;;62.20;28.52;;;;;;;-1.00;80.39;100407.09;6324302;22;20030;-86
2023/01/31 05:23:32;;;;;;;61.28;29.90;;;;;;;-1.25;80.23;100382.19;6327670;22;20044;-88
2023/01/31 05:26:00;;;;;;;61.28;31.13;;;;;;;-1.12;80.97;100411.34;6272893;22;20014;-88
2023/01/31 05:28:27;;;;;;;65.03;32.33;;;;;;;-1.23;81.25;100404.06;6292613;22;20341;-84
2023/01/31 05:31:07;;;;;;;70.68;33.40;;;;;;;-1.06;80.27;100409.16;6311224;22;20089;-84
2023/01/31 05:33:34;;;;;;;65.35;31.90;;;;;;;-0.99;81.22;100437.81;6316374;22;19999;-86
2023/01/31 05:36:05;;;;;;;65.97;31.73;;;;;;;-0.99;80.77;100427.25;6289415;22;20491;-86
2023/01/31 05:38:35;;;;;;;62.92;30.08;;;;;;;-1.16;81.44;100417.72;6288088;22;20019;-86
2023/01/31 05:41:07;;;;;;;62.90;29.98;;;;;;;-1.08;81.35;100437.44;6290658;22;20019;-85
2023/01/31 05:43:41;;;;;;;55.63;27.05;;;;;;;-1.06;81.24;100432.91;6351926;22;20014;-85
2023/01/31 05:46:07;;;;;;;64.45;30.80;;;;;;;-1.30;82.07;100421.19;6299528;22;20006;-86
2023/01/31 05:49:32;;;;;;;59.58;28.08;;;;;;;-0.98;81.85;100447.44;6303951;22;20350;-87
2023/01/31 05:56:03;;;;;;;50.72;24.73;;;;;;;-1.06;82.98;100429.41;6336156;22;20101;-90
2023/01/31 05:59:02;;;;;;;56.00;23.02;;;;;;;-1.21;81.76;100427.72;6362014;22;20014;-89
2023/01/31 06:01:50;;;;;;;45.83;21.23;;;;;;;-1.14;82.25;100426.41;6361148;22;20041;-86
2023/01/31 06:04:22;;;;;;;56.50;23.70;;;;;;;-0.98;82.82;100444.81;6337626;22;19999;-92
2023/01/31 06:06:58;;;;;;;53.25;24.02;;;;;;;-1.08;82.55;100426.00;6333754;22;19998;-92
2023/01/31 06:09:28;;;;;;;53.22;24.27;;;;;;;-0.83;82.45;100462.34;6355194;22;19995;-88
2023/01/31 06:12:17;;;;;;;52.38;23.75;;;;;;;-0.78;82.83;100468.19;6312440;22;20018;-88
2023/01/31 06:15:24;;;;;;;50.90;23.48;;;;;;;-0.82;82.26;100442.94;6306053;22;20022;-86
2023/01/31 06:21:07;;;;;;;56.97;25.23;;;;;;;-0.95;81.99;100441.97;6376815;22;20060;-85
2023/01/31 06:24:25;;;;;;;65.57;28.27;;;;;;;-1.02;81.83;100435.38;6316889;22;20021;-87
2023/01/31 06:27:31;;;;;;;57.53;24.85;;;;;;;-0.77;81.80;100464.63;6314381;22;20083;-82
2023/01/31 06:30:00;;;;;;;54.25;24.38;;;;;;;-1.03;82.53;100446.84;6314728;22;20027;-86
2023/01/31 06:33:11;;;;;;;52.38;23.27;;;;;;;-0.89;82.54;100453.00;6290966;22;21304;-87
2023/01/31 06:36:44;;;;;;;57.75;24.20;;;;;;;-0.83;82.82;100461.50;6358960;22;20029;-92
2023/01/31 06:39:33;;;;;;;50.45;21.98;;;;;;;-0.90;83.03;100445.19;6360971;22;20025;-84
2023/01/31 06:42:27;;;;;;;50.38;22.55;;;;;;;-0.71;82.69;100456.31;6362712;22;20015;-87
2023/01/31 06:45:07;;;;;;;51.40;23.33;;;;;;;-0.74;83.68;100484.69;6333043;22;20023;-92
2023/01/31 06:48:19;;;;;;;60.05;24.17;;;;;;;-0.85;83.64;100451.03;6359842;22;20002;-91
2023/01/31 06:51:05;;;;;;;55.83;23.90;;;;;;;-0.67;82.81;100447.25;6328594;22;20050;-89
2023/01/31 06:54:11;;;;;;;51.03;24.13;;;;;;;-0.12;81.51;100489.66;6301209;22;20011;-87
2023/01/31 06:56:46;;;;;;;51.00;22.83;;;;;;;-0.30;81.54;100447.63;6305775;22;20003;-86
2023/01/31 06:59:37;;;;;;;48.92;22.55;;;;;;;-0.26;81.79;100496.69;6301223;22;19999;-84
2023/01/31 07:02:08;;;;;;;52.15;23.70;;;;;;;-0.24;81.43;100457.78;6327759;22;20014;-89
2023/01/31 07:04:35;;;;;;;52.22;22.45;;;;;;;-0.09;81.37;100497.44;6325781;22;20056;-88
2023/01/31 07:07:05;;;;;;;48.25;21.48;;;;;;;-0.04;81.32;100480.31;6299393;22;20006;-90
2023/01/31 07:09:52;;;;;;;50.83;23.80;;;;;;;0.08;81.49;100491.06;6283327;22;20014;-90
2023/01/31 07:12:19;;;;;;;45.20;20.63;;;;;;;-0.08;81.83;100504.41;6291412;22;20015;-90
2023/01/31 07:14:46;;;;;;;54.90;23.00;;;;;;;-0.03;81.55;100491.72;6301026;22;20075;-88
2023/01/31 07:17:12;;;;;;;51.80;23.05;;;;;;;0.19;80.69;100515.03;6327643;22;20003;-90
2023/01/31 07:19:37;;;;;;;55.08;23.73;;;;;;;0.06;81.64;100499.09;6275121;22;20019;-86
2023/01/31 07:22:04;;;;;;;52.30;21.85;;;;;;;-0.02;81.43;100467.88;6296397;22;20022;-86
2023/01/31 07:24:34;;;;;;;50.65;21.70;;;;;;;0.31;81.15;100503.66;6276805;22;20034;-84
2023/01/31 07:30:05;;;;;;;49.22;21.58;;;;;;;0.27;80.75;100478.34;6288591;22;20046;-84
2023/01/31 07:32:35;;;;;;;50.67;20.65;;;;;;;0.35;80.64;100465.50;6319563;22;20035;-89
2023/01/31 07:35:02;;;;;;;50.55;22.77;;;;;;;0.71;80.37;100510.78;6312977;22;20000;-84
2023/01/31 07:37:34;;;;;;;46.25;22.55;;;;;;;0.58;80.29;100490.41;6264458;22;20003;-87
2023/01/31 07:39:59;;;;;;;54.83;21.90;;;;;;;0.73;80.24;100501.81;6276565;22;19999;-87
2023/01/31 07:42:30;;;;;;;44.83;21.92;;;;;;;0.76;80.45;100506.03;6278931;22;20018;-85
2023/01/31 07:44:56;;;;;;;48.15;21.25;;;;;;;0.87;80.41;100500.88;6306644;22;20045;-84
2023/01/31 07:47:26;;;;;;;45.47;21.63;;;;;;;1.05;80.12;100498.78;6267650;22;19994;-85
2023/01/31 07:49:56;;;;;;;46.67;21.17;;;;;;;1.17;80.18;100507.69;6300645;22;20014;-86
2023/01/31 07:53:10;;;;;;;48.03;22.65;;;;;;;1.10;79.39;100503.75;6292951;22;20018;-87
2023/01/31 07:56:39;;;;;;;46.28;20.45;;;;;;;1.43;79.10;100504.13;6322259;22;20071;-87
2023/01/31 07:59:12;;;;;;;43.25;21.30;;;;;;;1.33;78.60;100492.44;6302024;22;20010;-89
2023/01/31 08:04:40;;;;;;;42.28;20.98;;;;;;;1.40;78.33;100503.47;6279118;22;20018;-91
2023/01/31 08:07:13;;;;;;;45.30;19.70;;;;;;;1.58;78.06;100506.66;6297421;22;20022;-89
2023/01/31 08:10:19;;;;;;;43.55;17.60;;;;;;;1.74;78.11;100503.78;6304538;22;20245;-91
2023/01/31 08:12:49;;;;;;;39.10;18.52;;;;;;;1.74;77.83;100488.72;6303717;22;20018;-91
2023/01/31 08:15:17;;;;;;;41.63;19.15;;;;;;;1.80;77.60;100512.16;6299577;22;19987;-87
2023/01/31 08:28:58;;;;;;;38.05;18.02;;;;;;;2.21;76.35;100516.28;6296491;22;20008;-89
2023/01/31 08:53:28;;;;;;;36.97;17.30;;;;;;;3.14;71.29;100518.31;6349312;22;20007;31
2023/01/31 09:16:13;;;;;;;25.40;13.40;;;;;;;4.65;63.09;100517.88;6333500;22;20031;-92
2023/01/31 09:24:47;;;;;;;28.13;14.30;;;;;;;4.91;60.96;100501.56;6296336;22;20133;-89
2023/01/31 09:27:14;;;;;;;23.38;12.20;;;;;;;4.85;61.14;100517.09;6260132;22;20090;-86
2023/01/31 09:29:47;;;;;;;24.65;14.05;;;;;;;4.47;61.57;100498.09;6285590;22;20000;-87
2023/01/31 09:32:12;;;;;;;22.23;12.73;;;;;;;4.26;62.38;100482.91;6211408;22;20030;-89
2023/01/31 09:34:42;;;;;;;23.88;12.73;;;;;;;4.27;62.35;100494.41;6231678;22;20050;-87
2023/01/31 09:37:12;;;;;;;28.33;12.77;;;;;;;4.35;62.21;100506.09;6263580;22;20071;-86
2023/01/31 09:39:39;;;;;;;21.75;11.40;;;;;;;4.00;62.42;100515.13;6235740;22;20007;-87
2023/01/31 09:42:29;;;;;;;22.33;11.32;;;;;;;3.94;62.75;100506.78;6235031;22;19999;-87
2023/01/31 09:45:34;;;;;;;23.58;10.82;;;;;;;3.91;62.76;100515.84;6283838;22;19999;-87
2023/01/31 09:48:47;;;;;;;23.05;11.75;;;;;;;4.16;62.66;100508.56;6288231;22;20081;-86
2023/01/31 09:51:18;;;;;;;24.52;12.57;;;;;;;4.35;63.20;100513.25;6257371;22;20008;-88
2023/01/31 09:53:45;;;;;;;23.27;12.73;;;;;;;4.34;62.60;100507.06;6249642;22;20031;-84
2023/01/31 09:56:27;;;;;;;24.33;12.93;;;;;;;4.52;62.20;100518.06;6249869;22;20297;-84
2023/01/31 09:59:21;;;;;;;25.02;12.98;;;;;;;4.23;62.16;100515.06;6256755;22;20011;-86
2023/01/31 10:02:07;;;;;;;22.85;12.65;;;;;;;4.30;62.13;100516.28;6227992;22;20029;-87
2023/01/31 10:05:15;;;;;;;26.63;13.07;;;;;;;4.89;60.83;100511.50;6278447;22;20074;-87
2023/01/31 10:07:53;;;;;;;34.33;17.35;;;;;;;4.89;60.17;100506.16;6279127;22;20019;-86
2023/01/31 10:10:42;;;;;;;28.90;13.80;;;;;;;5.18;59.30;100507.25;6228947;22;20445;-85
2023/01/31 10:13:35;;;;;;;26.30;12.75;;;;;;;4.96;59.24;100508.19;6253893;22;20459;-86
2023/01/31 10:16:30;;;;;;;26.52;12.15;;;;;;;4.89;59.56;100511.50;6270759;22;20026;-87
2023/01/31 10:19:07;;;;;;;30.67;12.63;;;;;;;4.89;60.17;100511.50;6294217;22;19996;-87
2023/01/31 10:21:48;;;;;;;27.70;12.10;;;;;;;4.97;59.45;100501.06;6219084;22;20011;-86
2023/01/31 10:24:47;;;;;;;27.63;11.25;;;;;;;4.96;58.98;100491.34;6256626;22;20042;-88
2023/01/31 10:28:06;;;;;;;25.00;11.50;;;;;;;4.63;59.50;100478.06;6278042;22;20072;-88
2023/01/31 10:30:44;;;;;;;23.52;11.35;;;;;;;4.35;59.98;100492.78;6275517;22;20008;-87
2023/01/31 10:33:35;;;;;;;25.52;11.85;;;;;;;4.26;60.31;100482.91;6231310;22;20008;-88
2023/01/31 10:36:07;;;;;;;25.70;11.52;;;;;;;4.49;60.08;100469.53;6270754;22;20031;-87
2023/01/31 10:39:07;;;;;;;24.45;12.30;;;;;;;4.70;59.46;100490.88;6225663;22;20289;-83
2023/01/31 10:41:50;;;;;;;19.77;10.52;;;;;;;4.56;59.53;100478.69;6274676;22;20011;-85
2023/01/31 10:44:27;;;;;;;19.65;10.63;;;;;;;4.07;60.37;100474.72;6223957;22;20325;-88
2023/01/31 10:47:01;;;;;;;22.52;10.82;;;;;;;4.04;60.51;100488.28;6251573;22;20000;-87
2023/01/31 10:49:34;;;;;;;23.07;10.97;;;;;;;3.74;60.97;100479.94;6256460;22;20053;-85
2023/01/31 10:52:39;;;;;;;24.58;11.10;;;;;;;3.65;61.90;100490.44;6227353;22;20008;-85
2023/01/31 10:55:17;;;;;;;24.05;11.23;;;;;;;3.94;61.47;100486.34;6245805;22;20291;-86
2023/01/31 10:57:43;;;;;;;26.50;11.75;;;;;;;3.77;61.87;100479.72;6283365;22;20325;-87
2023/01/31 11:00:23;;;;;;;32.47;12.30;;;;;;;3.79;61.71;100485.75;6252255;22;20019;-86
2023/01/31 11:02:50;;;;;;;20.00;10.13;;;;;;;3.85;60.93;100500.38;6232642;22;20083;-86
2023/01/31 11:05:48;;;;;;;23.38;11.55;;;;;;;3.67;62.00;100500.00;6268374;22;20003;-93
2023/01/31 11:08:27;;;;;;;24.92;10.73;;;;;;;3.67;61.73;100502.66;6265398;22;19999;-85
2023/01/31 11:11:27;;;;;;;27.88;12.43;;;;;;;3.96;62.26;100502.19;6296739;22;20007;-88
2023/01/31 11:13:58;;;;;;;30.10;12.10;;;;;;;4.32;61.35;100500.19;6283542;22;20003;-86
2023/01/31 11:16:38;;;;;;;29.30;11.32;;;;;;;4.41;60.28;100480.81;6278416;22;20038;-84
2023/01/31 11:53:39;;;;;;;20.00;9.02;;;;;;;4.63;58.39;100478.06;6274034;22;20415;-83
2023/01/31 11:56:16;;;;;;;19.83;9.32;;;;;;;4.64;58.85;100486.91;6247200;22;20023;-83
2023/01/31 11:58:44;;;;;;;21.52;9.93;;;;;;;4.39;59.63;100490.72;6272744;22;20007;-85
2023/01/31 12:01:21;;;;;;;18.33;9.00;;;;;;;4.19;59.95;100487.00;6281373;22;20015;-84
2023/01/31 12:03:54;;;;;;;16.13;8.30;;;;;;;4.28;59.51;100488.94;6235800;22;20095;-84
2023/01/31 12:06:35;;;;;;;17.98;9.68;;;;;;;4.10;60.38;100488.63;6263257;22;20010;-83
2023/01/31 12:09:02;;;;;;;20.55;8.55;;;;;;;3.97;60.35;100480.78;6244074;22;20012;-82
2023/01/31 12:11:34;;;;;;;20.67;9.30;;;;;;;3.96;60.35;100471.09;6246771;22;20004;-89
2023/01/31 12:18:07;;;;;;;17.05;8.90;;;;;;;4.14;61.31;100479.41;6300639;22;20063;-88
2023/01/31 12:24:27;;;;;;;16.30;8.07;;;;;;;3.92;60.79;100476.78;6289923;22;20039;-86
2023/01/31 12:27:39;;;;;;;18.85;8.05;;;;;;;3.81;61.40;100497.09;6267802;22;20003;-87
2023/01/31 12:30:45;;;;;;;14.35;8.10;;;;;;;3.75;61.61;100496.75;6295863;22;20016;-85
2023/01/31 12:33:26;;;;;;;16.73;8.93;;;;;;;3.83;61.68;100501.47;6254339;22;20061;-86
2023/01/31 12:36:31;;;;;;;19.30;8.80;;;;;;;3.89;61.80;100506.31;6273653;22;20034;-85
2023/01/31 12:39:26;;;;;;;17.85;8.73;;;;;;;3.56;61.84;100476.94;6272653;22;20023;-84
2023/01/31 12:42:15;;;;;;;18.63;8.75;;;;;;;3.85;61.62;100512.84;6221849;22;20007;-83
2023/01/31 12:44:47;;;;;;;18.83;9.27;;;;;;;3.97;60.95;100509.19;6272812;22;20648;-85
2023/01/31 12:47:51;;;;;;;19.27;9.35;;;;;;;4.07;61.04;100509.28;6221675;22;20010;-88
2023/01/31 12:50:39;;;;;;;16.70;8.98;;;;;;;3.83;61.58;100520.91;6274938;22;20004;-83
2023/01/31 12:53:10;;;;;;;21.10;9.77;;;;;;;3.74;61.81;100506.53;6265736;22;20012;-83
2023/01/31 12:55:51;;;;;;;19.00;9.30;;;;;;;3.78;61.29;100510.66;6273398;22;20401;-82
2023/01/31 12:58:31;;;;;;;22.38;9.43;;;;;;;3.70;62.19;100512.19;6247105;22;20043;-85
2023/01/31 13:01:10;;;;;;;15.07;8.27;;;;;;;3.49;62.53;100518.25;6273089;22;20092;-83
2023/01/31 13:03:43;;;;;;;18.08;8.63;;;;;;;3.45;63.17;100529.25;6251224;22;19999;-89
2023/01/31 13:06:24;;;;;;;18.98;10.05;;;;;;;3.49;63.07;100522.69;6278487;22;20000;-84
2023/01/31 13:09:08;;;;;;;18.17;8.38;;;;;;;3.55;63.13;100530.22;6248074;22;20074;-83
2023/01/31 13:11:46;;;;;;;16.52;8.68;;;;;;;3.40;63.61;100532.25;6246949;22;20014;-85
2023/01/31 13:14:35;;;;;;;29.80;9.63;;;;;;;3.51;63.56;100518.97;6217767;22;20050;-85
2023/01/31 13:17:05;;;;;;;15.40;7.70;;;;;;;3.44;63.09;100533.72;6268859;22;20460;-83
2023/01/31 13:19:51;;;;;;;16.33;7.97;;;;;;;3.54;62.91;100534.69;6270784;22;20012;-83
2023/01/31 13:22:42;;;;;;;15.75;7.93;;;;;;;3.29;63.56;100513.63;6244700;22;20003;-84
2023/01/31 13:25:17;;;;;;;14.20;7.47;;;;;;;3.36;63.69;100536.94;6210625;22;20019;-85
2023/01/31 13:27:45;;;;;;;16.40;8.45;;;;;;;3.12;64.40;100537.00;6245295;22;20022;-87
2023/01/31 13:30:39;;;;;;;18.27;8.25;;;;;;;3.33;64.33;100537.19;6222045;22;20042;-85
2023/01/31 13:33:17;;;;;;;20.60;10.25;;;;;;;3.33;64.75;100545.16;6222628;22;20061;-84
2023/01/31 13:35:42;;;;;;;19.90;9.93;;;;;;;3.31;64.85;100541.75;6224757;22;20279;-83
2023/01/31 13:38:13;;;;;;;15.55;7.85;;;;;;;3.29;64.38;100534.88;6254095;22;20007;-81
2023/01/31 13:40:59;;;;;;;19.20;7.80;;;;;;;3.21;64.12;100523.97;6227156;22;20455;-85
2023/01/31 13:43:26;;;;;;;14.25;7.53;;;;;;;3.35;64.10;100537.06;6246411;22;20012;-82
2023/01/31 13:45:55;;;;;;;16.85;8.30;;;;;;;3.10;64.83;100544.25;6247636;22;20003;-83
2023/01/31 13:49:02;;;;;;;14.30;7.70;;;;;;;3.10;64.87;100551.38;6221619;22;20079;-83
2023/01/31 13:51:29;;;;;;;18.13;8.57;;;;;;;3.27;64.50;100550.91;6185668;23;20512;-84
2023/01/31 13:54:03;;;;;;;21.83;9.07;;;;;;;3.12;64.50;100526.38;6233144;22;20148;-85
2023/01/31 13:56:38;;;;;;;17.17;8.20;;;;;;;3.25;64.62;100555.50;6277259;22;20007;-84
2023/01/31 13:59:09;;;;;;;17.15;7.75;;;;;;;3.31;64.41;100562.19;6249270;22;20019;-84
2023/01/31 14:01:46;;;;;;;18.08;7.93;;;;;;;3.13;65.24;100559.09;6244864;22;20077;-85
2023/01/31 14:04:23;;;;;;;12.85;7.20;;;;;;;2.99;65.67;100565.44;6274661;22;20011;-85
2023/01/31 14:06:54;;;;;;;14.77;7.85;;;;;;;3.04;65.77;100571.25;6274483;22;20105;-84
2023/01/31 14:09:45;;;;;;;12.80;7.05;;;;;;;2.96;65.78;100565.69;6312861;22;20041;-86
2023/01/31 14:12:16;;;;;;;18.38;8.38;;;;;;;2.92;66.21;100572.16;6285697;22;20019;-87
2023/01/31 14:14:50;;;;;;;15.02;7.97;;;;;;;2.84;66.43;100567.44;6281274;22;20487;-85
2023/01/31 14:17:28;;;;;;;14.77;8.07;;;;;;;2.90;66.61;100593.56;6274152;22;20393;-83
2023/01/31 14:20:03;;;;;;;16.55;8.50;;;;;;;2.90;66.89;100590.03;6275021;22;20420;-83
2023/01/31 14:22:38;;;;;;;13.75;7.55;;;;;;;2.82;66.52;100565.84;6275399;22;20005;-83
2023/01/31 14:25:14;;;;;;;14.80;7.75;;;;;;;3.00;66.52;100593.72;6258484;22;20432;-85
2023/01/31 14:35:48;;;;;;;13.03;7.60;;;;;;;2.78;69.41;100598.91;6332721;22;20026;-85
2023/01/31 14:38:38;;;;;;;13.70;7.45;;;;;;;2.66;70.43;100598.81;6338884;22;19998;-85
2023/01/31 14:41:50;;;;;;;14.32;7.70;;;;;;;2.65;69.86;100605.09;6319443;22;20074;-86
2023/01/31 14:44:45;;;;;;;13.68;7.40;;;;;;;2.80;69.67;100596.97;6306276;22;20011;-87
2023/01/31 14:47:35;;;;;;;20.27;8.52;;;;;;;2.69;69.97;100609.25;6342843;22;20530;-86
2023/01/31 14:50:19;;;;;;;18.20;8.48;;;;;;;2.61;70.70;100608.94;6314292;22;20007;-86
2023/01/31 14:52:58;;;;;;;16.45;8.02;;;;;;;2.69;70.24;100611.91;6357429;22;19987;-87
2023/01/31 14:55:52;;;;;;;14.82;8.00;;;;;;;2.66;70.71;100620.06;6345006;22;19998;-88
2023/01/31 14:58:25;;;;;;;13.82;7.55;;;;;;;2.79;70.50;100616.53;6275027;22;19995;-86
2023/01/31 15:00:58;;;;;;;17.50;8.20;;;;;;;2.48;72.01;100610.78;6306331;22;20017;-85
2023/01/31 15:03:39;;;;;;;16.83;8.60;;;;;;;2.67;71.77;100624.44;6332298;22;20010;-88
2023/01/31 15:09:34;;;;;;;18.40;9.00;;;;;;;2.37;73.08;100616.03;6352670;22;20361;-87
2023/01/31 15:12:00;;;;;;;14.30;8.77;;;;;;;2.42;72.94;100616.53;6322452;22;19998;-85
2023/01/31 15:14:50;;;;;;;13.50;7.95;;;;;;;2.58;73.35;100634.88;6271485;22;20014;-85
2023/01/31 15:50:35;;;;;;;15.70;9.05;;;;;;;2.04;76.76;100683.75;6329748;22;20015;-89
2023/01/31 15:53:20;;;;;;;13.75;7.10;;;;;;;1.91;76.24;100673.13;6320423;22;20514;-86
2023/01/31 15:56:01;;;;;;;13.95;7.75;;;;;;;1.80;76.89;100665.91;6321344;22;20420;-88
2023/01/31 15:58:44;;;;;;;12.93;7.15;;;;;;;1.77;77.31;100691.75;6323715;22;20005;-85
2023/01/31 16:01:41;;;;;;;14.23;6.95;;;;;;;1.70;76.94;100670.13;6294910;22;19999;-89
2023/01/31 16:07:05;;;;;;;14.57;8.20;;;;;;;1.73;78.14;100704.38;6282650;22;20056;-89
2023/01/31 16:10:03;;;;;;;13.65;7.95;;;;;;;1.81;77.99;100710.00;6248312;22;20038;-89
2023/01/31 16:26:17;;;;;;;13.93;6.72;;;;;;;1.79;77.62;100706.63;6351933;22;20019;-92
2023/01/31 16:28:52;;;;;;;14.02;6.95;;;;;;;1.76;77.90;100701.53;6302321;22;20010;-87
2023/01/31 16:31:20;;;;;;;13.57;7.50;;;;;;;1.67;78.32;100696.84;6279176;22;20032;-88
2023/01/31 16:33:56;;;;;;;15.77;8.32;;;;;;;1.65;78.89;100693.44;6304282;22;20014;-90
2023/01/31 16:37:06;;;;;;;14.98;7.45;;;;;;;1.71;79.12;100719.53;6315014;22;20050;-90
2023/01/31 16:42:38;;;;;;;12.20;6.87;;;;;;;1.74;78.84;100716.69;6290724;22;20004;-89
2023/01/31 16:45:52;;;;;;;11.80;6.78;;;;;;;1.51;78.79;100696.16;6292401;22;20004;-89
2023/01/31 16:48:45;;;;;;;13.75;6.47;;;;;;;1.62;78.89;100723.66;6205665;23;20017;-90
2023/01/31 17:07:43;;;;;;;11.30;5.93;;;;;;;1.40;79.81;100716.25;6296270;22;20012;-90
2023/01/31 17:31:11;;;;;;;14.40;7.45;;;;;;;1.33;80.54;100714.94;6298115;22;20054;-88